sensor_id;sensor_type;location;lat;lon;timestamp;P1;durP1;ratioP1;P2;durP2;ratioP2
12493;SDS011;8260;51.422;6.786;2022-12-07T00:01:05;25.55;;;18.80;;
12493;SDS011;8260;51.422;6.786;2022-12-07T00:03:33;24.15;;;18.52;;
12493;SDS011;8260;51.422;6.786;2022-12-07T00:06:04;22.08;;;19.05;;
12493;SDS011;8260;51.422;6.786;2022-12-07T00:08:33;22.83;;;19.05;;
12493;SDS011;8260;51.422;6.786;2022-12-07T00:11:02;24.05;;;19.42;;
12493;SDS011;8260;51.422;6.786;2022-12-07T00:13:31;24.55;;;19.48;;
12493;SDS011;8260;51.422;6.786;2022-12-07T00:16:00;24.40;;;19.48;;
12493;SDS011;8260;51.422;6.786;2022-12-07T00:18:29;25.85;;;20.33;;
12493;SDS011;8260;51.422;6.786;2022-12-07T00:21:00;26.30;;;21.10;;
12493;SDS011;8260;51.422;6.786;2022-12-07T00:23:30;25.90;;;19.83;;
12493;SDS011;8260;51.422;6.786;2022-12-07T00:26:03;27.02;;;21.33;;
12493;SDS011;8260;51.422;6.786;2022-12-07T00:28:31;27.35;;;21.55;;
12493;SDS011;8260;51.422;6.786;2022-12-07T00:31:03;28.38;;;22.58;;
12493;SDS011;8260;51.422;6.786;2022-12-07T00:33:32;25.42;;;21.30;;
12493;SDS011;8260;51.422;6.786;2022-12-07T00:36:00;25.83;;;20.98;;
12493;SDS011;8260;51.422;6.786;2022-12-07T00:38:31;29.25;;;23.23;;
12493;SDS011;8260;51.422;6.786;2022-12-07T00:41:00;29.83;;;22.67;;
12493;SDS011;8260;51.422;6.786;2022-12-07T00:43:29;29.77;;;22.35;;
12493;SDS011;8260;51.422;6.786;2022-12-07T00:45:57;29.45;;;22.73;;
12493;SDS011;8260;51.422;6.786;2022-12-07T00:48:26;29.13;;;23.40;;
12493;SDS011;8260;51.422;6.786;2022-12-07T00:50:54;28.65;;;22.48;;
12493;SDS011;8260;51.422;6.786;2022-12-07T00:53:23;33.05;;;23.95;;
12493;SDS011;8260;51.422;6.786;2022-12-07T00:55:53;31.00;;;23.63;;
12493;SDS011;8260;51.422;6.786;2022-12-07T00:58:22;30.90;;;23.23;;
12493;SDS011;8260;51.422;6.786;2022-12-07T01:00:50;30.30;;;23.08;;
12493;SDS011;8260;51.422;6.786;2022-12-07T01:03:19;33.10;;;23.60;;
12493;SDS011;8260;51.422;6.786;2022-12-07T01:05:50;32.10;;;23.85;;
12493;SDS011;8260;51.422;6.786;2022-12-07T01:08:19;30.23;;;23.48;;
12493;SDS011;8260;51.422;6.786;2022-12-07T01:10:48;32.83;;;23.13;;
12493;SDS011;8260;51.422;6.786;2022-12-07T01:13:18;29.05;;;23.10;;
12493;SDS011;8260;51.422;6.786;2022-12-07T01:15:46;31.48;;;23.95;;
12493;SDS011;8260;51.422;6.786;2022-12-07T01:18:14;30.02;;;22.80;;
12493;SDS011;8260;51.422;6.786;2022-12-07T01:20:43;29.15;;;23.77;;
12493;SDS011;8260;51.422;6.786;2022-12-07T01:23:11;28.48;;;23.02;;
12493;SDS011;8260;51.422;6.786;2022-12-07T01:25:39;29.90;;;23.35;;
12493;SDS011;8260;51.422;6.786;2022-12-07T01:28:08;35.25;;;23.25;;
12493;SDS011;8260;51.422;6.786;2022-12-07T01:30:38;30.38;;;23.02;;
12493;SDS011;8260;51.422;6.786;2022-12-07T01:33:06;29.10;;;23.38;;
12493;SDS011;8260;51.422;6.786;2022-12-07T01:35:34;27.83;;;22.40;;
12493;SDS011;8260;51.422;6.786;2022-12-07T01:38:03;27.08;;;22.20;;
12493;SDS011;8260;51.422;6.786;2022-12-07T01:40:31;30.27;;;22.60;;
12493;SDS011;8260;51.422;6.786;2022-12-07T01:43:00;29.73;;;22.75;;
12493;SDS011;8260;51.422;6.786;2022-12-07T01:45:37;26.95;;;22.90;;
12493;SDS011;8260;51.422;6.786;2022-12-07T01:48:08;28.75;;;22.70;;
12493;SDS011;8260;51.422;6.786;2022-12-07T01:50:38;26.63;;;21.52;;
12493;SDS011;8260;51.422;6.786;2022-12-07T01:53:07;29.30;;;22.58;;
12493;SDS011;8260;51.422;6.786;2022-12-07T01:55:38;29.38;;;22.60;;
12493;SDS011;8260;51.422;6.786;2022-12-07T01:58:08;27.15;;;22.02;;
12493;SDS011;8260;51.422;6.786;2022-12-07T02:00:37;26.25;;;20.63;;
12493;SDS011;8260;51.422;6.786;2022-12-07T02:03:07;31.67;;;22.83;;
12493;SDS011;8260;51.422;6.786;2022-12-07T02:05:38;30.08;;;23.63;;
12493;SDS011;8260;51.422;6.786;2022-12-07T02:08:08;30.65;;;21.70;;
12493;SDS011;8260;51.422;6.786;2022-12-07T02:10:37;26.27;;;20.45;;
12493;SDS011;8260;51.422;6.786;2022-12-07T02:13:06;28.35;;;21.77;;
12493;SDS011;8260;51.422;6.786;2022-12-07T02:15:41;29.00;;;22.20;;
12493;SDS011;8260;51.422;6.786;2022-12-07T02:18:14;24.42;;;20.33;;
12493;SDS011;8260;51.422;6.786;2022-12-07T02:20:46;27.38;;;20.75;;
12493;SDS011;8260;51.422;6.786;2022-12-07T02:23:28;26.98;;;20.77;;
12493;SDS011;8260;51.422;6.786;2022-12-07T02:28:52;26.08;;;20.15;;
12493;SDS011;8260;51.422;6.786;2022-12-07T02:31:27;30.17;;;21.98;;
12493;SDS011;8260;51.422;6.786;2022-12-07T02:33:57;27.35;;;21.25;;
12493;SDS011;8260;51.422;6.786;2022-12-07T02:36:30;25.77;;;19.90;;
12493;SDS011;8260;51.422;6.786;2022-12-07T02:39:01;30.08;;;21.02;;
12493;SDS011;8260;51.422;6.786;2022-12-07T02:41:33;27.30;;;21.27;;
12493;SDS011;8260;51.422;6.786;2022-12-07T02:44:05;24.98;;;20.35;;
12493;SDS011;8260;51.422;6.786;2022-12-07T02:46:36;25.92;;;21.10;;
12493;SDS011;8260;51.422;6.786;2022-12-07T02:49:05;25.20;;;20.20;;
12493;SDS011;8260;51.422;6.786;2022-12-07T02:51:38;26.05;;;20.65;;
12493;SDS011;8260;51.422;6.786;2022-12-07T02:54:09;22.55;;;18.88;;
12493;SDS011;8260;51.422;6.786;2022-12-07T02:56:41;27.17;;;20.02;;
12493;SDS011;8260;51.422;6.786;2022-12-07T02:59:16;29.02;;;19.13;;
12493;SDS011;8260;51.422;6.786;2022-12-07T03:01:47;28.23;;;19.67;;
12493;SDS011;8260;51.422;6.786;2022-12-07T03:04:23;25.92;;;20.40;;
12493;SDS011;8260;51.422;6.786;2022-12-07T03:06:56;26.20;;;19.38;;
12493;SDS011;8260;51.422;6.786;2022-12-07T03:09:29;23.52;;;20.08;;
12493;SDS011;8260;51.422;6.786;2022-12-07T03:12:01;27.05;;;20.27;;
12493;SDS011;8260;51.422;6.786;2022-12-07T03:14:35;26.70;;;20.45;;
12493;SDS011;8260;51.422;6.786;2022-12-07T03:17:06;27.02;;;19.88;;
12493;SDS011;8260;51.422;6.786;2022-12-07T03:19:36;27.27;;;20.25;;
12493;SDS011;8260;51.422;6.786;2022-12-07T03:22:05;24.90;;;19.00;;
12493;SDS011;8260;51.422;6.786;2022-12-07T03:24:39;24.60;;;19.90;;
12493;SDS011;8260;51.422;6.786;2022-12-07T03:27:09;23.15;;;19.48;;
12493;SDS011;8260;51.422;6.786;2022-12-07T03:29:41;25.88;;;18.23;;
12493;SDS011;8260;51.422;6.786;2022-12-07T03:32:14;28.67;;;19.30;;
12493;SDS011;8260;51.422;6.786;2022-12-07T03:34:45;23.45;;;18.48;;
12493;SDS011;8260;51.422;6.786;2022-12-07T03:37:15;22.75;;;18.58;;
12493;SDS011;8260;51.422;6.786;2022-12-07T03:39:46;22.45;;;18.17;;
12493;SDS011;8260;51.422;6.786;2022-12-07T03:42:17;24.77;;;17.58;;
12493;SDS011;8260;51.422;6.786;2022-12-07T03:44:46;24.13;;;17.95;;
12493;SDS011;8260;51.422;6.786;2022-12-07T03:47:15;25.77;;;18.50;;
12493;SDS011;8260;51.422;6.786;2022-12-07T03:49:46;25.05;;;18.67;;
12493;SDS011;8260;51.422;6.786;2022-12-07T03:52:18;25.92;;;19.77;;
12493;SDS011;8260;51.422;6.786;2022-12-07T03:54:51;24.77;;;18.88;;
12493;SDS011;8260;51.422;6.786;2022-12-07T03:57:22;22.67;;;19.13;;
12493;SDS011;8260;51.422;6.786;2022-12-07T03:59:53;26.48;;;18.25;;
12493;SDS011;8260;51.422;6.786;2022-12-07T04:02:22;26.88;;;19.02;;
12493;SDS011;8260;51.422;6.786;2022-12-07T04:04:51;25.35;;;19.00;;
12493;SDS011;8260;51.422;6.786;2022-12-07T04:07:20;26.60;;;19.50;;
12493;SDS011;8260;51.422;6.786;2022-12-07T04:09:48;30.00;;;20.35;;
12493;SDS011;8260;51.422;6.786;2022-12-07T04:12:17;25.50;;;18.95;;
12493;SDS011;8260;51.422;6.786;2022-12-07T04:14:45;31.35;;;20.83;;
12493;SDS011;8260;51.422;6.786;2022-12-07T04:17:15;27.67;;;20.90;;
12493;SDS011;8260;51.422;6.786;2022-12-07T04:19:43;27.05;;;20.27;;
12493;SDS011;8260;51.422;6.786;2022-12-07T04:22:12;29.17;;;20.45;;
12493;SDS011;8260;51.422;6.786;2022-12-07T04:24:40;26.90;;;20.15;;
12493;SDS011;8260;51.422;6.786;2022-12-07T04:27:08;26.83;;;18.95;;
12493;SDS011;8260;51.422;6.786;2022-12-07T04:29:37;25.27;;;19.27;;
12493;SDS011;8260;51.422;6.786;2022-12-07T04:32:05;26.63;;;21.23;;
12493;SDS011;8260;51.422;6.786;2022-12-07T04:34:36;30.55;;;20.00;;
12493;SDS011;8260;51.422;6.786;2022-12-07T04:37:04;27.55;;;18.42;;
12493;SDS011;8260;51.422;6.786;2022-12-07T04:39:32;27.90;;;19.52;;
12493;SDS011;8260;51.422;6.786;2022-12-07T04:42:01;26.60;;;19.85;;
12493;SDS011;8260;51.422;6.786;2022-12-07T04:44:29;26.33;;;18.70;;
12493;SDS011;8260;51.422;6.786;2022-12-07T04:46:58;25.23;;;17.75;;
12493;SDS011;8260;51.422;6.786;2022-12-07T04:49:26;24.85;;;19.38;;
12493;SDS011;8260;51.422;6.786;2022-12-07T04:51:56;32.38;;;19.20;;
12493;SDS011;8260;51.422;6.786;2022-12-07T04:54:25;26.17;;;17.92;;
12493;SDS011;8260;51.422;6.786;2022-12-07T04:56:53;28.55;;;19.08;;
12493;SDS011;8260;51.422;6.786;2022-12-07T04:59:22;24.08;;;18.00;;
12493;SDS011;8260;51.422;6.786;2022-12-07T05:01:50;23.85;;;17.70;;
12493;SDS011;8260;51.422;6.786;2022-12-07T05:04:18;23.55;;;18.58;;
12493;SDS011;8260;51.422;6.786;2022-12-07T05:06:47;21.85;;;16.58;;
12493;SDS011;8260;51.422;6.786;2022-12-07T05:09:16;27.38;;;17.83;;
12493;SDS011;8260;51.422;6.786;2022-12-07T05:11:45;28.20;;;18.40;;
12493;SDS011;8260;51.422;6.786;2022-12-07T05:14:14;26.73;;;17.27;;
12493;SDS011;8260;51.422;6.786;2022-12-07T05:16:43;22.80;;;16.88;;
12493;SDS011;8260;51.422;6.786;2022-12-07T05:19:12;20.98;;;16.63;;
12493;SDS011;8260;51.422;6.786;2022-12-07T05:21:40;25.35;;;18.38;;
12493;SDS011;8260;51.422;6.786;2022-12-07T05:24:09;21.70;;;16.63;;
12493;SDS011;8260;51.422;6.786;2022-12-07T05:26:39;19.70;;;15.93;;
12493;SDS011;8260;51.422;6.786;2022-12-07T05:29:10;24.00;;;15.52;;
12493;SDS011;8260;51.422;6.786;2022-12-07T05:31:39;22.60;;;15.65;;
12493;SDS011;8260;51.422;6.786;2022-12-07T05:34:07;22.02;;;15.13;;
12493;SDS011;8260;51.422;6.786;2022-12-07T05:36:36;22.85;;;15.40;;
12493;SDS011;8260;51.422;6.786;2022-12-07T05:39:04;18.58;;;14.80;;
12493;SDS011;8260;51.422;6.786;2022-12-07T05:41:33;26.58;;;15.57;;
12493;SDS011;8260;51.422;6.786;2022-12-07T05:44:20;19.65;;;14.70;;
12493;SDS011;8260;51.422;6.786;2022-12-07T05:46:49;18.17;;;14.93;;
12493;SDS011;8260;51.422;6.786;2022-12-07T05:49:17;21.65;;;15.57;;
12493;SDS011;8260;51.422;6.786;2022-12-07T05:51:46;21.42;;;15.27;;
12493;SDS011;8260;51.422;6.786;2022-12-07T05:54:14;19.45;;;14.02;;
12493;SDS011;8260;51.422;6.786;2022-12-07T05:56:42;21.75;;;14.20;;
12493;SDS011;8260;51.422;6.786;2022-12-07T05:59:11;20.05;;;13.93;;
12493;SDS011;8260;51.422;6.786;2022-12-07T06:01:53;24.33;;;14.98;;
12493;SDS011;8260;51.422;6.786;2022-12-07T06:04:22;20.83;;;15.40;;
12493;SDS011;8260;51.422;6.786;2022-12-07T06:06:51;18.65;;;13.73;;
12493;SDS011;8260;51.422;6.786;2022-12-07T06:09:19;19.70;;;14.18;;
12493;SDS011;8260;51.422;6.786;2022-12-07T06:11:48;21.83;;;14.38;;
12493;SDS011;8260;51.422;6.786;2022-12-07T06:14:35;17.75;;;13.93;;
12493;SDS011;8260;51.422;6.786;2022-12-07T06:17:05;23.20;;;15.35;;
12493;SDS011;8260;51.422;6.786;2022-12-07T06:19:33;19.00;;;13.98;;
12493;SDS011;8260;51.422;6.786;2022-12-07T06:22:02;20.52;;;14.15;;
12493;SDS011;8260;51.422;6.786;2022-12-07T06:24:31;23.23;;;14.23;;
12493;SDS011;8260;51.422;6.786;2022-12-07T06:27:00;19.42;;;14.18;;
12493;SDS011;8260;51.422;6.786;2022-12-07T06:29:28;21.17;;;13.60;;
12493;SDS011;8260;51.422;6.786;2022-12-07T06:31:56;22.90;;;13.52;;
12493;SDS011;8260;51.422;6.786;2022-12-07T06:34:26;22.75;;;14.15;;
12493;SDS011;8260;51.422;6.786;2022-12-07T06:36:55;20.00;;;13.27;;
12493;SDS011;8260;51.422;6.786;2022-12-07T06:39:24;21.45;;;13.60;;
12493;SDS011;8260;51.422;6.786;2022-12-07T06:41:53;22.63;;;14.40;;
12493;SDS011;8260;51.422;6.786;2022-12-07T06:44:21;20.35;;;13.20;;
12493;SDS011;8260;51.422;6.786;2022-12-07T06:46:50;21.20;;;14.15;;
12493;SDS011;8260;51.422;6.786;2022-12-07T06:49:40;19.00;;;13.30;;
12493;SDS011;8260;51.422;6.786;2022-12-07T06:52:09;19.50;;;14.07;;
12493;SDS011;8260;51.422;6.786;2022-12-07T06:54:37;21.70;;;13.68;;
12493;SDS011;8260;51.422;6.786;2022-12-07T06:57:05;22.50;;;13.82;;
12493;SDS011;8260;51.422;6.786;2022-12-07T06:59:34;20.73;;;13.60;;
12493;SDS011;8260;51.422;6.786;2022-12-07T07:02:02;19.52;;;12.75;;
12493;SDS011;8260;51.422;6.786;2022-12-07T07:04:31;16.92;;;12.85;;
12493;SDS011;8260;51.422;6.786;2022-12-07T07:07:01;19.00;;;12.73;;
12493;SDS011;8260;51.422;6.786;2022-12-07T07:09:29;17.45;;;12.38;;
12493;SDS011;8260;51.422;6.786;2022-12-07T07:11:57;20.00;;;13.68;;
12493;SDS011;8260;51.422;6.786;2022-12-07T07:14:26;23.15;;;14.40;;
12493;SDS011;8260;51.422;6.786;2022-12-07T07:16:54;19.10;;;13.15;;
12493;SDS011;8260;51.422;6.786;2022-12-07T07:19:23;16.00;;;12.70;;
12493;SDS011;8260;51.422;6.786;2022-12-07T07:21:51;18.13;;;13.52;;
12493;SDS011;8260;51.422;6.786;2022-12-07T07:24:21;20.08;;;13.40;;
12493;SDS011;8260;51.422;6.786;2022-12-07T07:26:49;24.40;;;13.32;;
12493;SDS011;8260;51.422;6.786;2022-12-07T07:29:17;17.27;;;13.80;;
12493;SDS011;8260;51.422;6.786;2022-12-07T07:31:46;18.15;;;13.32;;
12493;SDS011;8260;51.422;6.786;2022-12-07T07:34:14;19.55;;;13.85;;
12493;SDS011;8260;51.422;6.786;2022-12-07T07:36:44;17.67;;;13.15;;
12493;SDS011;8260;51.422;6.786;2022-12-07T07:39:12;19.02;;;14.13;;
12493;SDS011;8260;51.422;6.786;2022-12-07T07:41:42;17.65;;;13.02;;
12493;SDS011;8260;51.422;6.786;2022-12-07T07:44:10;20.45;;;14.05;;
12493;SDS011;8260;51.422;6.786;2022-12-07T07:46:39;17.88;;;12.38;;
12493;SDS011;8260;51.422;6.786;2022-12-07T07:49:08;19.88;;;13.75;;
12493;SDS011;8260;51.422;6.786;2022-12-07T07:51:37;16.67;;;13.25;;
12493;SDS011;8260;51.422;6.786;2022-12-07T07:54:05;16.08;;;12.77;;
12493;SDS011;8260;51.422;6.786;2022-12-07T07:56:34;16.88;;;13.25;;
12493;SDS011;8260;51.422;6.786;2022-12-07T07:59:03;20.52;;;13.07;;
12493;SDS011;8260;51.422;6.786;2022-12-07T08:01:32;21.90;;;13.75;;
12493;SDS011;8260;51.422;6.786;2022-12-07T08:04:00;17.52;;;12.93;;
12493;SDS011;8260;51.422;6.786;2022-12-07T08:06:29;19.35;;;13.00;;
12493;SDS011;8260;51.422;6.786;2022-12-07T08:08:58;19.55;;;13.88;;
12493;SDS011;8260;51.422;6.786;2022-12-07T08:11:26;18.88;;;12.98;;
12493;SDS011;8260;51.422;6.786;2022-12-07T08:13:54;15.98;;;12.88;;
12493;SDS011;8260;51.422;6.786;2022-12-07T08:16:24;20.40;;;13.57;;
12493;SDS011;8260;51.422;6.786;2022-12-07T08:18:53;18.02;;;12.90;;
12493;SDS011;8260;51.422;6.786;2022-12-07T08:21:21;18.80;;;13.65;;
12493;SDS011;8260;51.422;6.786;2022-12-07T08:23:50;20.50;;;13.48;;
12493;SDS011;8260;51.422;6.786;2022-12-07T08:26:19;16.88;;;12.98;;
12493;SDS011;8260;51.422;6.786;2022-12-07T08:28:47;21.02;;;13.65;;
12493;SDS011;8260;51.422;6.786;2022-12-07T08:31:16;17.35;;;13.05;;
12493;SDS011;8260;51.422;6.786;2022-12-07T08:33:47;17.55;;;12.95;;
12493;SDS011;8260;51.422;6.786;2022-12-07T08:36:16;16.70;;;11.90;;
12493;SDS011;8260;51.422;6.786;2022-12-07T08:38:44;17.88;;;11.93;;
12493;SDS011;8260;51.422;6.786;2022-12-07T08:41:33;16.67;;;11.60;;
12493;SDS011;8260;51.422;6.786;2022-12-07T08:44:01;16.60;;;12.18;;
12493;SDS011;8260;51.422;6.786;2022-12-07T08:46:31;18.75;;;12.07;;
12493;SDS011;8260;51.422;6.786;2022-12-07T08:49:06;16.55;;;11.75;;
12493;SDS011;8260;51.422;6.786;2022-12-07T08:51:37;18.02;;;12.95;;
12493;SDS011;8260;51.422;6.786;2022-12-07T08:54:06;19.27;;;11.60;;
12493;SDS011;8260;51.422;6.786;2022-12-07T08:56:35;18.17;;;12.05;;
12493;SDS011;8260;51.422;6.786;2022-12-07T08:59:04;17.73;;;11.52;;
12493;SDS011;8260;51.422;6.786;2022-12-07T09:01:33;15.57;;;11.45;;
12493;SDS011;8260;51.422;6.786;2022-12-07T09:04:02;14.38;;;11.13;;
12493;SDS011;8260;51.422;6.786;2022-12-07T09:06:31;14.00;;;11.63;;
12493;SDS011;8260;51.422;6.786;2022-12-07T09:09:00;19.45;;;11.15;;
12493;SDS011;8260;51.422;6.786;2022-12-07T09:11:29;18.15;;;11.15;;
12493;SDS011;8260;51.422;6.786;2022-12-07T09:13:57;16.73;;;11.18;;
12493;SDS011;8260;51.422;6.786;2022-12-07T09:16:26;17.88;;;11.65;;
12493;SDS011;8260;51.422;6.786;2022-12-07T09:18:54;16.08;;;11.10;;
12493;SDS011;8260;51.422;6.786;2022-12-07T09:21:23;12.85;;;10.32;;
12493;SDS011;8260;51.422;6.786;2022-12-07T09:23:53;14.85;;;10.02;;
12493;SDS011;8260;51.422;6.786;2022-12-07T09:26:21;18.13;;;9.88;;
12493;SDS011;8260;51.422;6.786;2022-12-07T09:28:49;13.77;;;8.82;;
12493;SDS011;8260;51.422;6.786;2022-12-07T09:31:18;12.63;;;8.85;;
12493;SDS011;8260;51.422;6.786;2022-12-07T09:33:53;15.98;;;8.93;;
12493;SDS011;8260;51.422;6.786;2022-12-07T09:36:21;10.95;;;8.40;;
12493;SDS011;8260;51.422;6.786;2022-12-07T09:38:50;16.00;;;9.50;;
12493;SDS011;8260;51.422;6.786;2022-12-07T09:41:20;12.60;;;9.15;;
12493;SDS011;8260;51.422;6.786;2022-12-07T09:43:49;18.40;;;8.27;;
12493;SDS011;8260;51.422;6.786;2022-12-07T09:46:18;12.43;;;8.77;;
12493;SDS011;8260;51.422;6.786;2022-12-07T09:48:47;13.10;;;8.77;;
12493;SDS011;8260;51.422;6.786;2022-12-07T09:51:18;12.77;;;8.32;;
12493;SDS011;8260;51.422;6.786;2022-12-07T09:53:51;15.55;;;8.77;;
12493;SDS011;8260;51.422;6.786;2022-12-07T09:56:21;12.77;;;8.48;;
12493;SDS011;8260;51.422;6.786;2022-12-07T09:58:51;12.65;;;8.23;;
12493;SDS011;8260;51.422;6.786;2022-12-07T10:01:22;14.15;;;8.18;;
12493;SDS011;8260;51.422;6.786;2022-12-07T10:03:51;13.65;;;7.43;;
12493;SDS011;8260;51.422;6.786;2022-12-07T10:06:21;8.75;;;6.18;;
12493;SDS011;8260;51.422;6.786;2022-12-07T10:08:49;7.35;;;6.10;;
12493;SDS011;8260;51.422;6.786;2022-12-07T10:11:18;8.40;;;5.60;;
12493;SDS011;8260;51.422;6.786;2022-12-07T10:13:49;9.30;;;5.70;;
12493;SDS011;8260;51.422;6.786;2022-12-07T10:16:30;10.15;;;5.13;;
12493;SDS011;8260;51.422;6.786;2022-12-07T10:19:04;7.65;;;4.93;;
12493;SDS011;8260;51.422;6.786;2022-12-07T10:21:58;7.60;;;5.13;;
12493;SDS011;8260;51.422;6.786;2022-12-07T10:24:27;5.72;;;4.25;;
12493;SDS011;8260;51.422;6.786;2022-12-07T10:26:55;6.75;;;4.97;;
12493;SDS011;8260;51.422;6.786;2022-12-07T10:29:28;7.88;;;4.65;;
12493;SDS011;8260;51.422;6.786;2022-12-07T10:31:58;9.25;;;4.95;;
12493;SDS011;8260;51.422;6.786;2022-12-07T10:34:28;5.95;;;4.50;;
12493;SDS011;8260;51.422;6.786;2022-12-07T10:39:54;10.57;;;5.20;;
12493;SDS011;8260;51.422;6.786;2022-12-07T10:42:24;11.60;;;4.97;;
12493;SDS011;8260;51.422;6.786;2022-12-07T10:45:08;9.52;;;5.53;;
12493;SDS011;8260;51.422;6.786;2022-12-07T10:47:38;8.93;;;5.13;;
12493;SDS011;8260;51.422;6.786;2022-12-07T10:50:14;7.70;;;5.20;;
12493;SDS011;8260;51.422;6.786;2022-12-07T10:52:48;7.72;;;5.13;;
12493;SDS011;8260;51.422;6.786;2022-12-07T10:55:22;10.90;;;5.60;;
12493;SDS011;8260;51.422;6.786;2022-12-07T10:57:56;5.25;;;4.60;;
12493;SDS011;8260;51.422;6.786;2022-12-07T11:00:29;11.02;;;4.63;;
12493;SDS011;8260;51.422;6.786;2022-12-07T11:03:03;11.43;;;5.35;;
12493;SDS011;8260;51.422;6.786;2022-12-07T11:05:37;7.20;;;4.45;;
12493;SDS011;8260;51.422;6.786;2022-12-07T11:08:11;7.10;;;4.63;;
12493;SDS011;8260;51.422;6.786;2022-12-07T11:10:43;7.20;;;4.75;;
12493;SDS011;8260;51.422;6.786;2022-12-07T11:13:24;9.57;;;5.00;;
12493;SDS011;8260;51.422;6.786;2022-12-07T11:18:43;6.70;;;4.32;;
12493;SDS011;8260;51.422;6.786;2022-12-07T11:21:17;12.50;;;5.07;;
12493;SDS011;8260;51.422;6.786;2022-12-07T11:23:49;11.82;;;5.78;;
12493;SDS011;8260;51.422;6.786;2022-12-07T11:26:24;8.07;;;4.63;;
12493;SDS011;8260;51.422;6.786;2022-12-07T11:29:01;7.88;;;5.22;;
12493;SDS011;8260;51.422;6.786;2022-12-07T11:31:33;7.40;;;5.00;;
12493;SDS011;8260;51.422;6.786;2022-12-07T11:34:07;6.18;;;4.63;;
12493;SDS011;8260;51.422;6.786;2022-12-07T11:36:37;8.73;;;4.80;;
12493;SDS011;8260;51.422;6.786;2022-12-07T11:39:09;9.77;;;4.75;;
12493;SDS011;8260;51.422;6.786;2022-12-07T11:41:39;7.15;;;4.55;;
12493;SDS011;8260;51.422;6.786;2022-12-07T11:44:22;9.60;;;4.72;;
12493;SDS011;8260;51.422;6.786;2022-12-07T11:46:55;7.57;;;4.63;;
12493;SDS011;8260;51.422;6.786;2022-12-07T11:49:26;5.55;;;4.43;;
12493;SDS011;8260;51.422;6.786;2022-12-07T11:51:57;7.60;;;4.57;;
12493;SDS011;8260;51.422;6.786;2022-12-07T11:54:28;6.28;;;4.15;;
12493;SDS011;8260;51.422;6.786;2022-12-07T11:56:59;7.10;;;4.28;;
12493;SDS011;8260;51.422;6.786;2022-12-07T11:59:31;6.07;;;4.00;;
12493;SDS011;8260;51.422;6.786;2022-12-07T12:02:03;9.98;;;4.57;;
12493;SDS011;8260;51.422;6.786;2022-12-07T12:04:44;8.18;;;5.05;;
12493;SDS011;8260;51.422;6.786;2022-12-07T12:07:15;8.05;;;4.00;;
12493;SDS011;8260;51.422;6.786;2022-12-07T12:10:05;8.50;;;4.13;;
12493;SDS011;8260;51.422;6.786;2022-12-07T12:12:45;7.35;;;4.78;;
12493;SDS011;8260;51.422;6.786;2022-12-07T12:15:44;6.85;;;4.03;;
12493;SDS011;8260;51.422;6.786;2022-12-07T12:18:24;7.38;;;4.38;;
12493;SDS011;8260;51.422;6.786;2022-12-07T12:20:56;8.50;;;4.18;;
12493;SDS011;8260;51.422;6.786;2022-12-07T12:23:27;7.28;;;4.32;;
12493;SDS011;8260;51.422;6.786;2022-12-07T12:26:01;9.10;;;4.38;;
12493;SDS011;8260;51.422;6.786;2022-12-07T12:28:31;4.65;;;3.80;;
12493;SDS011;8260;51.422;6.786;2022-12-07T12:31:05;5.53;;;4.32;;
12493;SDS011;8260;51.422;6.786;2022-12-07T12:33:34;6.68;;;3.92;;
12493;SDS011;8260;51.422;6.786;2022-12-07T12:36:22;8.82;;;4.15;;
12493;SDS011;8260;51.422;6.786;2022-12-07T12:38:52;8.13;;;4.53;;
12493;SDS011;8260;51.422;6.786;2022-12-07T12:50:15;10.35;;;5.22;;
12493;SDS011;8260;51.422;6.786;2022-12-07T12:52:50;7.78;;;3.90;;
12493;SDS011;8260;51.422;6.786;2022-12-07T12:55:22;6.68;;;4.88;;
12493;SDS011;8260;51.422;6.786;2022-12-07T13:00:39;5.00;;;3.60;;
12493;SDS011;8260;51.422;6.786;2022-12-07T13:03:16;5.95;;;3.70;;
12493;SDS011;8260;51.422;6.786;2022-12-07T13:05:48;7.95;;;4.30;;
12493;SDS011;8260;51.422;6.786;2022-12-07T13:08:38;8.05;;;3.38;;
12493;SDS011;8260;51.422;6.786;2022-12-07T13:11:16;8.68;;;4.05;;
12493;SDS011;8260;51.422;6.786;2022-12-07T13:13:45;6.63;;;3.78;;
12493;SDS011;8260;51.422;6.786;2022-12-07T13:22:03;10.18;;;4.25;;
12493;SDS011;8260;51.422;6.786;2022-12-07T13:24:33;7.20;;;4.28;;
12493;SDS011;8260;51.422;6.786;2022-12-07T13:27:02;8.27;;;4.60;;
12493;SDS011;8260;51.422;6.786;2022-12-07T13:29:35;10.13;;;5.10;;
12493;SDS011;8260;51.422;6.786;2022-12-07T13:32:17;10.05;;;4.70;;
12493;SDS011;8260;51.422;6.786;2022-12-07T13:34:51;8.73;;;4.80;;
12493;SDS011;8260;51.422;6.786;2022-12-07T13:37:21;9.00;;;4.32;;
12493;SDS011;8260;51.422;6.786;2022-12-07T13:39:53;7.43;;;4.63;;
12493;SDS011;8260;51.422;6.786;2022-12-07T13:42:24;8.98;;;5.13;;
12493;SDS011;8260;51.422;6.786;2022-12-07T13:44:53;7.70;;;4.70;;
12493;SDS011;8260;51.422;6.786;2022-12-07T13:47:23;8.07;;;4.63;;
12493;SDS011;8260;51.422;6.786;2022-12-07T13:49:55;8.38;;;5.15;;
12493;SDS011;8260;51.422;6.786;2022-12-07T13:52:24;10.07;;;4.95;;
12493;SDS011;8260;51.422;6.786;2022-12-07T13:54:57;10.43;;;6.05;;
12493;SDS011;8260;51.422;6.786;2022-12-07T13:57:27;8.82;;;5.43;;
12493;SDS011;8260;51.422;6.786;2022-12-07T13:59:57;6.43;;;4.22;;
12493;SDS011;8260;51.422;6.786;2022-12-07T14:02:27;8.20;;;4.40;;
12493;SDS011;8260;51.422;6.786;2022-12-07T14:05:08;6.68;;;4.18;;
12493;SDS011;8260;51.422;6.786;2022-12-07T14:07:47;7.50;;;4.07;;
12493;SDS011;8260;51.422;6.786;2022-12-07T14:10:24;10.55;;;5.30;;
12493;SDS011;8260;51.422;6.786;2022-12-07T14:12:53;11.38;;;5.35;;
12493;SDS011;8260;51.422;6.786;2022-12-07T14:15:22;10.52;;;5.18;;
12493;SDS011;8260;51.422;6.786;2022-12-07T14:17:51;6.47;;;3.35;;
12493;SDS011;8260;51.422;6.786;2022-12-07T14:20:29;4.43;;;2.95;;
12493;SDS011;8260;51.422;6.786;2022-12-07T14:22:58;6.93;;;3.42;;
12493;SDS011;8260;51.422;6.786;2022-12-07T14:25:46;8.55;;;3.40;;
12493;SDS011;8260;51.422;6.786;2022-12-07T14:28:26;8.45;;;3.35;;
12493;SDS011;8260;51.422;6.786;2022-12-07T14:30:55;9.10;;;4.15;;
12493;SDS011;8260;51.422;6.786;2022-12-07T14:33:23;9.00;;;3.47;;
12493;SDS011;8260;51.422;6.786;2022-12-07T14:35:52;7.80;;;3.55;;
12493;SDS011;8260;51.422;6.786;2022-12-07T14:38:22;9.45;;;3.55;;
12493;SDS011;8260;51.422;6.786;2022-12-07T14:40:51;8.50;;;3.90;;
12493;SDS011;8260;51.422;6.786;2022-12-07T14:43:20;7.65;;;4.72;;
12493;SDS011;8260;51.422;6.786;2022-12-07T14:45:49;8.50;;;3.67;;
12493;SDS011;8260;51.422;6.786;2022-12-07T14:48:17;8.57;;;4.13;;
12493;SDS011;8260;51.422;6.786;2022-12-07T14:51:07;9.80;;;3.92;;
12493;SDS011;8260;51.422;6.786;2022-12-07T14:53:56;4.82;;;3.63;;
12493;SDS011;8260;51.422;6.786;2022-12-07T14:56:26;8.63;;;4.18;;
12493;SDS011;8260;51.422;6.786;2022-12-07T14:58:55;12.35;;;4.55;;
12493;SDS011;8260;51.422;6.786;2022-12-07T15:01:23;11.13;;;4.03;;
12493;SDS011;8260;51.422;6.786;2022-12-07T15:03:52;8.07;;;4.10;;
12493;SDS011;8260;51.422;6.786;2022-12-07T15:06:20;7.25;;;3.95;;
12493;SDS011;8260;51.422;6.786;2022-12-07T15:08:48;10.98;;;4.40;;
12493;SDS011;8260;51.422;6.786;2022-12-07T15:11:17;10.65;;;4.78;;
12493;SDS011;8260;51.422;6.786;2022-12-07T15:13:47;9.77;;;3.90;;
12493;SDS011;8260;51.422;6.786;2022-12-07T15:16:33;7.70;;;3.88;;
12493;SDS011;8260;51.422;6.786;2022-12-07T15:19:22;9.20;;;4.32;;
12493;SDS011;8260;51.422;6.786;2022-12-07T15:21:55;8.30;;;4.32;;
12493;SDS011;8260;51.422;6.786;2022-12-07T15:24:23;10.15;;;4.57;;
12493;SDS011;8260;51.422;6.786;2022-12-07T15:26:52;5.95;;;4.32;;
12493;SDS011;8260;51.422;6.786;2022-12-07T15:29:22;7.28;;;4.20;;
12493;SDS011;8260;51.422;6.786;2022-12-07T15:31:50;7.97;;;4.68;;